Latest Weather Observations for Middle Percy Island

IDQ60801

Issued at 2:52 pm EST Monday 23 September 2019 (issued every 10 minutes, with the page automatically refreshed every 10 minutes)

About weather observations | Map of weather stations | Latest weather observations for QLD | Other Formats
Station Details ID: 200001 Name: MIDDLE PERCY ISLAND Lat: -21.66 Lon: 150.27 Height: 208.7 m
Data from the previous 72 hours. | See also: Recent months at Middle Percy Island
Date/Time
EST
Temp
°C
App
Temp
°C
Dew
Point
°C
Rel
Hum
%
Delta-T
°C
Wind Press
QNH
hPa
Press
MSL
hPa
Rain since
9am
mm
Dir  Spd
km/h
Gust
km/h
Spd
kts
Gust
kts
23/02:30pm 22.9 23.0 17.4 71 3.4 SE 13 17 7 9 1021.8 1021.0 0.0
23/02:00pm 22.7 22.8 17.4 72 3.3 SE 13 19 7 10 1022.1 1021.3 0.0
23/01:30pm 21.7 21.5 17.5 77 2.6 SE 15 19 8 10 1022.5 1021.7 0.0
23/01:00pm 22.5 22.1 18.1 76 2.8 SE 17 22 9 12 1022.7 1021.9 0.0
23/12:30pm 22.6 22.3 18.2 76 2.8 SE 17 24 9 13 1023.2 1022.4 0.0
23/12:00pm 23.6 23.8 18.5 73 3.2 SE 15 24 8 13 1023.7 1022.9 0.0
23/11:30am 23.0 23.2 18.5 76 2.9 ESE 15 22 8 12 1024.1 1023.3 0.0
23/11:00am 21.9 21.5 18.1 79 2.4 SE 17 24 9 13 1024.5 1023.7 0.0
23/10:30am 21.9 21.4 17.9 78 2.5 SE 17 24 9 13 1024.5 1023.7 0.0
23/10:00am 22.5 22.2 18.3 77 2.6 SE 17 22 9 12 1024.8 1024.1 0.0
23/09:30am 21.7 21.3 18.1 80 2.3 SE 17 22 9 12 1024.9 1024.2 0.0
23/09:00am 21.8 20.9 17.8 78 2.5 SE 19 22 10 12 1025.0 1024.3 0.0
23/08:30am 21.3 20.8 17.7 80 2.2 SE 17 22 9 12 1025.1 1024.4 0.0
23/08:00am 21.3 20.8 17.9 81 2.1 SE 17 22 9 12 1024.9 1024.2 0.0
23/07:30am 20.6 19.9 17.4 82 2.0 ESE 17 24 9 13 1024.9 1024.2 0.0
23/07:00am 20.3 20.1 17.5 84 1.7 SE 15 20 8 11 1024.8 1024.1 0.0
23/06:30am 19.8 20.4 17.6 87 1.4 ESE 11 17 6 9 1024.7 1023.9 0.0
23/06:00am 19.2 20.1 17.5 90 1.0 ESE 9 13 5 7 1024.5 1023.7 0.0
23/05:30am 19.3 19.9 17.6 90 1.0 ESE 11 19 6 10 1024.5 1023.7 0.0
23/05:00am 19.3 19.5 17.6 90 1.0 ESE 13 22 7 12 1024.3 1023.5 0.0
23/04:30am 19.2 19.2 17.3 89 1.2 ESE 13 22 7 12 1024.2 1023.4 0.0
23/04:00am 19.2 20.0 17.2 88 1.2 E 9 17 5 9 1024.0 1023.2 0.0
23/03:30am 19.1 19.4 17.1 88 1.2 E 11 19 6 10 1023.9 1023.1 0.0
23/03:00am 19.1 19.7 16.9 87 1.3 E 9 15 5 8 1024.0 1023.2 0.0
23/02:30am 19.2 20.2 16.8 86 1.5 ESE 7 13 4 7 1024.2 1023.4 0.0
23/02:00am 19.3 19.6 16.9 86 1.5 E 11 17 6 9 1024.3 1023.5 0.0
23/01:30am 19.3 19.1 16.7 85 1.6 E 13 19 7 10 1024.6 1023.8 0.0
23/01:00am 19.3 19.3 16.3 83 1.8 E 11 17 6 9 1024.8 1024.1 0.0
23/12:30am 19.3 18.9 16.2 82 1.9 E 13 20 7 11 1024.9 1024.2 0.0
23/12:00am 19.2 18.8 16.1 82 1.9 ESE 13 19 7 10 1025.1 1024.4 0.0
 
Date/Time
EST
Temp
°C
App
Temp
°C
Dew
Point
°C
Rel
Hum
%
Delta-T
°C
Wind Press
QNH
hPa
Press
MSL
hPa
Rain since
9am
mm
Dir  Spd
km/h
Gust
km/h
Spd
kts
Gust
kts
22/11:30pm 19.3 18.5 16.0 81 2.0 ESE 15 22 8 12 1025.0 1024.3 0.0
22/11:00pm 19.4 19.1 16.4 83 1.8 ESE 13 19 7 10 1025.1 1024.4 0.0
22/10:30pm 19.4 19.2 16.8 85 1.6 ESE 13 20 7 11 1025.1 1024.4 0.0
22/10:00pm 19.4 18.6 16.2 82 1.9 ESE 15 24 8 13 1025.0 1024.3 0.0
22/09:30pm 19.5 18.4 16.3 82 1.9 ESE 17 24 9 13 1024.9 1024.2 0.0
22/09:00pm 19.4 18.4 16.6 84 1.7 ESE 17 20 9 11 1025.0 1024.3 0.0
22/08:30pm 19.3 18.6 16.5 84 1.7 SE 15 20 8 11 1024.9 1024.2 0.0
22/08:00pm 19.4 19.2 16.6 84 1.7 ESE 13 20 7 11 1024.7 1023.9 0.0
22/07:30pm 19.5 19.3 16.7 84 1.7 ESE 13 22 7 12 1024.5 1023.7 0.0
22/07:00pm 19.6 19.7 16.6 83 1.8 ESE 11 20 6 11 1024.3 1023.5 0.0
22/06:30pm 19.8 19.7 17.0 84 1.7 ESE 13 20 7 11 1024.0 1023.2 0.0
22/06:00pm 20.1 19.1 16.5 80 2.2 ESE 17 24 9 13 1023.7 1022.9 0.0
22/05:30pm 20.5 19.1 16.5 78 2.4 ESE 19 26 10 14 1023.4 1022.6 0.0
22/05:00pm 21.3 20.1 17.1 77 2.6 ESE 19 28 10 15 1023.1 1022.3 0.0
22/04:30pm 21.7 20.3 17.1 75 2.8 ESE 20 30 11 16 1023.0 1022.2 0.0
22/04:00pm 22.5 21.1 16.5 69 3.7 ESE 19 28 10 15 1022.9 1022.1 0.0
22/03:30pm 22.4 20.9 16.7 70 3.5 SE 20 26 11 14 1023.0 1022.2 0.0
22/03:00pm 22.9 21.5 16.9 69 3.7 ESE 20 30 11 16 1023.1 1022.3 0.0
22/02:30pm 23.0 20.8 17.0 69 3.7 ESE 24 32 13 17 1023.0 1022.2 0.0
22/02:00pm 23.1 21.2 16.6 67 4.0 ESE 22 30 12 16 1023.2 1022.4 0.0
22/01:30pm 22.8 21.2 17.5 72 3.3 SE 22 30 12 16 1023.4 1022.6 0.0
22/01:00pm 22.0 19.7 16.7 72 3.2 SE 24 32 13 17 1023.7 1022.9 0.0
22/12:30pm 23.2 21.3 17.7 71 3.4 ESE 24 32 13 17 1023.9 1023.1 0.0
22/12:00pm 23.6 22.1 17.6 69 3.7 SE 22 28 12 15 1024.1 1023.3 0.0
22/11:30am 22.2 20.9 17.3 74 3.0 SE 20 28 11 15 1024.4 1023.6 0.0
22/11:00am 22.0 20.1 16.7 72 3.2 SE 22 32 12 17 1024.6 1023.8 0.0
22/10:30am 22.3 20.2 16.3 69 3.7 SE 22 30 12 16 1025.0 1024.3 0.0
22/10:00am 22.9 21.2 17.1 70 3.6 SE 22 32 12 17 1025.0 1024.3 0.0
22/09:30am 22.6 21.1 17.7 74 3.1 SE 22 33 12 18 1024.8 1024.1 0.0
22/09:00am 22.4 21.1 16.7 70 3.5 SE 19 32 10 17 1024.9 1024.2 0.0
22/08:30am 21.3 20.4 17.7 80 2.2 SE 19 30 10 16 1024.9 1024.2 0.0
22/08:00am 20.9 21.2 17.9 83 1.9 SE 13 19 7 10 1024.7 1023.9 0.0
22/07:30am 21.1 19.9 17.1 78 2.5 SE 19 26 10 14 1024.4 1023.6 0.0
22/07:00am 20.8 20.6 18.4 86 1.5 SE 17 24 9 13 1024.1 1023.3 0.0
22/06:30am 20.2 19.4 18.5 90 1.1 SE 20 28 11 15 1023.7 1022.9 0.0
22/06:00am 19.6 19.8 17.7 89 1.2 ESE 13 19 7 10 1023.6 1022.8 0.0
22/05:30am 19.6 19.7 18.4 93 0.8 ESE 15 22 8 12 1023.4 1022.6 0.0
22/05:00am 19.8 19.5 18.3 91 0.9 ESE 17 24 9 13 1023.1 1022.3 0.0
22/04:30am 19.9 19.6 18.2 90 1.1 ESE 17 26 9 14 1022.8 1022.0 0.0
22/04:00am 19.8 19.3 17.9 89 1.2 ESE 17 26 9 14 1022.5 1021.7 0.0
22/03:30am 19.6 20.6 18.6 94 0.6 SE 11 17 6 9 1022.2 1021.4 0.0
22/03:00am 19.4 19.9 18.4 94 0.6 SE 13 20 7 11 1022.2 1021.4 0.0
22/02:30am 19.4 19.8 18.1 92 0.8 SE 13 19 7 10 1022.2 1021.4 0.0
22/02:00am 19.9 19.7 18.6 92 0.8 SE 17 22 9 12 1022.4 1021.6 0.0
22/01:30am 19.7 19.7 18.0 90 1.1 ESE 15 24 8 13 1022.7 1021.9 0.0
22/01:00am 19.6 19.6 18.1 91 0.9 SE 15 26 8 14 1022.9 1022.1 0.0
22/12:30am 19.5 19.8 17.8 90 1.1 SE 13 19 7 10 1023.1 1022.3 0.0
22/12:00am 19.4 19.1 17.4 88 1.2 ESE 15 22 8 12 1023.2 1022.4 0.0
 
Date/Time
EST
Temp
°C
App
Temp
°C
Dew
Point
°C
Rel
Hum
%
Delta-T
°C
Wind Press
QNH
hPa
Press
MSL
hPa
Rain since
9am
mm
Dir  Spd
km/h
Gust
km/h
Spd
kts
Gust
kts
21/11:30pm 19.4 19.7 17.0 86 1.5 ESE 11 19 6 10 1023.3 1022.5 0.0
21/11:00pm 19.4 19.9 16.6 84 1.7 ESE 9 19 5 10 1023.4 1022.6 0.0
21/10:30pm 19.5 19.9 16.3 82 1.9 ESE 9 19 5 10 1023.5 1022.7 0.0
21/10:00pm 19.4 19.7 16.1 81 2.0 E 9 17 5 9 1023.4 1022.6 0.0
21/09:30pm 19.4 19.4 15.3 77 2.4 ESE 9 17 5 9 1023.4 1022.6 0.0
21/09:00pm 19.4 19.4 15.3 77 2.4 ESE 9 19 5 10 1023.4 1022.6 0.0
21/08:30pm 19.6 19.9 15.9 79 2.2 E 9 19 5 10 1023.3 1022.5 0.0
21/08:00pm 19.8 19.6 15.7 77 2.4 ESE 11 19 6 10 1023.2 1022.4 0.0
21/07:30pm 19.9 19.9 16.2 79 2.2 ESE 11 20 6 11 1022.9 1022.1 0.0
21/07:00pm 20.0 19.5 16.8 82 1.9 ESE 15 24 8 13 1022.6 1021.8 0.0
21/06:30pm 20.1 19.8 17.3 84 1.7 ESE 15 24 8 13 1022.3 1021.5 0.0
21/06:00pm 20.2 19.1 17.2 83 1.8 ESE 19 30 10 16 1022.0 1021.2 0.0
21/05:30pm 20.5 19.1 16.9 80 2.2 ESE 20 32 11 17 1021.7 1020.9 0.0
21/05:00pm 21.2 19.0 17.0 77 2.6 ESE 24 33 13 18 1021.5 1020.7 0.0
21/04:30pm 21.5 19.6 16.7 74 2.9 SE 22 32 12 17 1021.4 1020.6 0.0
21/04:00pm 22.1 20.3 17.0 73 3.1 ESE 22 32 12 17 1021.3 1020.5 0.0
21/03:30pm 22.4 21.0 16.9 71 3.4 ESE 20 28 11 15 1021.3 1020.5 0.0
21/03:00pm 22.6 20.7 16.6 69 3.7 SE 22 30 12 16 1021.5 1020.7 0.0
21/02:30pm 22.5 21.0 16.8 70 3.5 SE 20 28 11 15 1021.6 1020.8 0.0
21/02:00pm 22.4 21.0 16.9 71 3.4 SE 20 30 11 16 1022.0 1021.2 0.0
21/01:30pm 23.3 21.2 16.1 64 4.4 SE 22 30 12 16 1022.3 1021.5 0.0
21/01:00pm 23.6 22.2 16.9 66 4.1 SE 20 30 11 16 1022.7 1021.9 0.0
21/12:30pm 23.4 21.2 16.0 63 4.5 SE 22 30 12 16 1023.0 1022.2 0.0
21/12:00pm 23.5 21.4 16.1 63 4.5 SE 22 30 12 16 1023.3 1022.5 0.0
21/11:30am 22.8 21.2 16.6 68 3.8 SE 20 28 11 15 1023.7 1022.9 0.0
21/11:00am 22.9 21.0 16.7 68 3.8 SE 22 30 12 16 1024.0 1023.2 0.0
21/10:30am 22.1 20.1 16.4 70 3.5 SE 22 30 12 16 1024.1 1023.3 0.0
21/10:00am 21.6 20.1 16.8 74 2.9 SE 20 32 11 17 1024.3 1023.5 0.0
21/09:30am 21.7 20.3 16.9 74 3.0 ESE 20 28 11 15 1024.4 1023.6 0.0
21/09:00am 21.7 20.3 17.1 75 2.8 ESE 20 28 11 15 1024.2 1023.4 0.0
21/08:30am 21.1 19.4 17.1 78 2.5 SE 22 28 12 15 1024.1 1023.3 0.0
21/08:00am 21.1 19.4 17.3 79 2.3 SE 22 28 12 15 1024.2 1023.4 0.0
21/07:30am 20.7 19.3 16.9 79 2.3 ESE 20 26 11 14 1023.9 1023.1 0.0
21/07:00am 20.1 19.4 16.5 80 2.2 SE 15 22 8 12 1023.7 1022.9 0.0
21/06:30am 19.9 19.4 16.0 78 2.3 ESE 13 22 7 12 1023.3 1022.5 0.0
21/06:00am 19.4 19.2 15.7 79 2.2 ESE 11 20 6 11 1023.1 1022.3 0.0
21/05:30am 19.4 19.4 16.2 82 1.9 ESE 11 19 6 10 1022.8 1022.0 0.0
21/05:00am 19.8 18.3 16.3 80 2.1 ESE 19 28 10 15 1022.6 1021.8 0.0
21/04:30am 19.8 18.6 16.1 79 2.2 ESE 17 24 9 13 1022.6 1021.8 0.0
21/04:00am 19.8 19.0 16.1 79 2.2 SE 15 26 8 14 1022.3 1021.5 0.0
21/03:30am 19.5 20.1 15.8 79 2.2 E 7 17 4 9 1022.2 1021.4 0.0
21/03:00am 19.4 19.6 15.7 79 2.2 E 9 17 5 9 1022.1 1021.3 0.0
21/02:30am 19.4 19.1 15.5 78 2.3 E 11 19 6 10 1022.2 1021.4 0.0
21/02:00am 19.5 19.3 15.6 78 2.3 E 11 20 6 11 1022.4 1021.6 0.0
21/01:30am 19.6 19.3 15.5 77 2.4 ENE 11 22 6 12 1022.5 1021.7 0.0
21/01:00am 19.6 19.9 15.9 79 2.2 E 9 17 5 9 1022.5 1021.7 0.0
21/12:30am 19.6 19.9 15.9 79 2.2 E 9 15 5 8 1022.5 1021.7 0.0
21/12:00am 19.8 20.0 16.8 83 1.8 ESE 11 19 6 10 1022.6 1021.8 0.0
 
Date/Time
EST
Temp
°C
App
Temp
°C
Dew
Point
°C
Rel
Hum
%
Delta-T
°C
Wind Press
QNH
hPa
Press
MSL
hPa
Rain since
9am
mm
Dir  Spd
km/h
Gust
km/h
Spd
kts
Gust
kts
20/11:30pm 19.8 19.0 17.0 84 1.7 ESE 17 30 9 16 1022.8 1022.0 0.0
20/11:00pm 19.7 18.8 16.9 84 1.7 ESE 17 28 9 15 1023.0 1022.2 0.0
20/10:30pm 19.7 19.1 16.7 83 1.8 ESE 15 26 8 14 1022.9 1022.1 0.0
20/10:00pm 19.7 19.4 16.5 82 1.9 ESE 13 24 7 13 1023.0 1022.2 0.0
20/09:30pm 19.8 19.4 16.3 80 2.1 ESE 13 20 7 11 1023.0 1022.2 0.0
20/09:00pm 19.7 18.4 14.9 74 2.8 SE 15 26 8 14 1022.8 1022.0 0.0
20/08:30pm 19.7 17.7 15.4 76 2.6 ESE 20 28 11 15 1022.7 1021.9 0.0
20/08:00pm 19.8 17.9 15.7 77 2.4 ESE 20 32 11 17 1022.4 1021.6 0.0
20/07:30pm 19.8 17.5 15.7 77 2.5 ESE 22 32 12 17 1022.1 1021.3 0.0
20/07:00pm 19.8 18.2 16.1 79 2.2 ESE 19 28 10 15 1021.7 1020.9 0.0
20/06:30pm 19.9 17.8 16.2 79 2.2 ESE 22 33 12 18 1021.4 1020.6 0.0
20/06:00pm 20.0 18.1 15.8 77 2.5 ESE 20 28 11 15 1021.2 1020.4 0.0
20/05:30pm 20.2 19.0 17.0 82 2.0 ESE 19 30 10 16 1021.0 1020.2 0.0
20/05:00pm 20.8 18.5 16.6 77 2.6 SE 24 33 13 18 1020.8 1020.0 0.0
20/04:30pm 20.7 18.0 16.7 78 2.4 ESE 26 33 14 18 1020.7 1019.9 0.0
20/04:00pm 20.9 18.4 16.1 74 2.9 ESE 24 35 13 19 1020.6 1019.7 0.0
20/03:30pm 21.9 19.1 16.4 71 3.4 SE 26 35 14 19 1020.7 1019.9 0.0
20/03:00pm 22.4 20.9 16.7 70 3.5 SE 20 28 11 15 1021.1 1020.3 0.0

Other formats

Comma delimited format used in spreadsheet applications
http://www.bom.gov.au/fwo/IDQ60801/IDQ60801.94372.axf

JavaScript Object Notation format (JSON) in row-major order
http://www.bom.gov.au/fwo/IDQ60801/IDQ60801.94372.json

Data quality

Most of these data are generated automatically and are frequently updated. Quality checks on data are not normally performed. It is possible for incorrect values to appear. Refer to information at About Latest Weather Observations and please check the disclaimer before using these data.